sensor_id;sensor_type;location;lat;lon;timestamp;pressure;altitude;pressure_sealevel;temperature
20867;BMP280;10593;48.398;10.698;2023-01-29T00:00:00;97118.69;;;7.64
20867;BMP280;10593;48.398;10.698;2023-01-29T00:02:26;97110.16;;;7.62
20867;BMP280;10593;48.398;10.698;2023-01-29T00:04:51;97111.88;;;7.62
20867;BMP280;10593;48.398;10.698;2023-01-29T00:07:17;97110.16;;;7.62
20867;BMP280;10593;48.398;10.698;2023-01-29T00:09:43;97113.56;;;7.61
20867;BMP280;10593;48.398;10.698;2023-01-29T00:12:09;97119.53;;;7.62
20867;BMP280;10593;48.398;10.698;2023-01-29T00:14:34;97109.31;;;7.62
20867;BMP280;10593;48.398;10.698;2023-01-29T00:17:00;97111.00;;;7.61
20867;BMP280;10593;48.398;10.698;2023-01-29T00:19:26;97122.94;;;7.61
20867;BMP280;10593;48.398;10.698;2023-01-29T00:21:52;97123.78;;;7.60
20867;BMP280;10593;48.398;10.698;2023-01-29T00:24:17;97115.25;;;7.59
20867;BMP280;10593;48.398;10.698;2023-01-29T00:26:43;97114.38;;;7.59
20867;BMP280;10593;48.398;10.698;2023-01-29T00:29:09;97110.97;;;7.58
20867;BMP280;10593;48.398;10.698;2023-01-29T00:31:35;97119.50;;;7.57
20867;BMP280;10593;48.398;10.698;2023-01-29T00:34:00;97125.44;;;7.58
20867;BMP280;10593;48.398;10.698;2023-01-29T00:36:26;97130.56;;;7.58
20867;BMP280;10593;48.398;10.698;2023-01-29T00:39:00;97125.44;;;7.58
20867;BMP280;10593;48.398;10.698;2023-01-29T00:41:31;97114.38;;;7.57
20867;BMP280;10593;48.398;10.698;2023-01-29T00:44:16;97120.34;;;7.56
20867;BMP280;10593;48.398;10.698;2023-01-29T00:47:03;97128.00;;;7.53
20867;BMP280;10593;48.398;10.698;2023-01-29T00:49:28;97128.00;;;7.53
20867;BMP280;10593;48.398;10.698;2023-01-29T00:51:57;97127.13;;;7.53
20867;BMP280;10593;48.398;10.698;2023-01-29T00:54:41;97116.88;;;7.51
20867;BMP280;10593;48.398;10.698;2023-01-29T00:57:07;97129.66;;;7.51
20867;BMP280;10593;48.398;10.698;2023-01-29T00:59:32;97116.03;;;7.51
20867;BMP280;10593;48.398;10.698;2023-01-29T01:01:58;97111.75;;;7.51
20867;BMP280;10593;48.398;10.698;2023-01-29T01:04:42;97111.78;;;7.50
20867;BMP280;10593;48.398;10.698;2023-01-29T01:07:08;97111.78;;;7.50
20867;BMP280;10593;48.398;10.698;2023-01-29T01:09:36;97113.47;;;7.51
20867;BMP280;10593;48.398;10.698;2023-01-29T01:12:22;97117.72;;;7.49
20867;BMP280;10593;48.398;10.698;2023-01-29T01:14:48;97120.28;;;7.49
20867;BMP280;10593;48.398;10.698;2023-01-29T01:17:14;97116.88;;;7.48
20867;BMP280;10593;48.398;10.698;2023-01-29T01:19:41;97119.41;;;7.48
20867;BMP280;10593;48.398;10.698;2023-01-29T01:22:07;97115.19;;;7.49
20867;BMP280;10593;48.398;10.698;2023-01-29T01:24:32;97115.19;;;7.49
20867;BMP280;10593;48.398;10.698;2023-01-29T01:26:58;97117.72;;;7.49
20867;BMP280;10593;48.398;10.698;2023-01-29T01:29:23;97112.63;;;7.49
20867;BMP280;10593;48.398;10.698;2023-01-29T01:31:52;97116.00;;;7.49
20867;BMP280;10593;48.398;10.698;2023-01-29T01:34:17;97113.47;;;7.49
20867;BMP280;10593;48.398;10.698;2023-01-29T01:36:43;97109.19;;;7.48
20867;BMP280;10593;48.398;10.698;2023-01-29T01:39:09;97121.13;;;7.48
20867;BMP280;10593;48.398;10.698;2023-01-29T01:41:35;97117.72;;;7.49
20867;BMP280;10593;48.398;10.698;2023-01-29T01:44:03;97121.97;;;7.48
20867;BMP280;10593;48.398;10.698;2023-01-29T01:46:32;97116.00;;;7.49
20867;BMP280;10593;48.398;10.698;2023-01-29T01:49:15;97119.41;;;7.48
20867;BMP280;10593;48.398;10.698;2023-01-29T01:51:47;97111.75;;;7.48
20867;BMP280;10593;48.398;10.698;2023-01-29T01:54:28;97114.31;;;7.48
20867;BMP280;10593;48.398;10.698;2023-01-29T01:57:02;97114.31;;;7.48
20867;BMP280;10593;48.398;10.698;2023-01-29T01:59:46;97121.97;;;7.48
20867;BMP280;10593;48.398;10.698;2023-01-29T02:02:15;97111.75;;;7.47
20867;BMP280;10593;48.398;10.698;2023-01-29T02:04:59;97110.00;;;7.46
20867;BMP280;10593;48.398;10.698;2023-01-29T02:07:48;97110.00;;;7.46
20867;BMP280;10593;48.398;10.698;2023-01-29T02:10:46;97105.75;;;7.45
20867;BMP280;10593;48.398;10.698;2023-01-29T02:13:14;97114.28;;;7.45
20867;BMP280;10593;48.398;10.698;2023-01-29T02:15:44;97112.56;;;7.44
20867;BMP280;10593;48.398;10.698;2023-01-29T02:18:15;97107.47;;;7.46
20867;BMP280;10593;48.398;10.698;2023-01-29T02:24:05;97097.22;;;7.46
20867;BMP280;10593;48.398;10.698;2023-01-29T02:26:57;97103.19;;;7.45
20867;BMP280;10593;48.398;10.698;2023-01-29T02:29:46;97107.47;;;7.44
20867;BMP280;10593;48.398;10.698;2023-01-29T02:32:29;97095.53;;;7.43
20867;BMP280;10593;48.398;10.698;2023-01-29T02:38:27;97108.28;;;7.42
20867;BMP280;10593;48.398;10.698;2023-01-29T02:41:13;97108.28;;;7.40
20867;BMP280;10593;48.398;10.698;2023-01-29T02:44:04;97115.97;;;7.42
20867;BMP280;10593;48.398;10.698;2023-01-29T02:46:59;97113.41;;;7.40
20867;BMP280;10593;48.398;10.698;2023-01-29T02:52:50;97109.09;;;7.39
20867;BMP280;10593;48.398;10.698;2023-01-29T02:55:32;97109.09;;;7.39
20867;BMP280;10593;48.398;10.698;2023-01-29T02:58:12;97102.34;;;7.41
20867;BMP280;10593;48.398;10.698;2023-01-29T03:00:44;97108.28;;;7.40
20867;BMP280;10593;48.398;10.698;2023-01-29T03:03:24;97106.56;;;7.41
20867;BMP280;10593;48.398;10.698;2023-01-29T03:06:04;97104.03;;;7.42
20867;BMP280;10593;48.398;10.698;2023-01-29T03:08:55;97100.63;;;7.40
20867;BMP280;10593;48.398;10.698;2023-01-29T03:11:23;97102.34;;;7.41
20867;BMP280;10593;48.398;10.698;2023-01-29T03:13:59;97102.34;;;7.41
20867;BMP280;10593;48.398;10.698;2023-01-29T03:16:35;97100.63;;;7.40
20867;BMP280;10593;48.398;10.698;2023-01-29T03:19:13;97094.66;;;7.41
20867;BMP280;10593;48.398;10.698;2023-01-29T03:21:46;97100.63;;;7.40
20867;BMP280;10593;48.398;10.698;2023-01-29T03:24:40;97102.34;;;7.41
20867;BMP280;10593;48.398;10.698;2023-01-29T03:27:33;97104.00;;;7.39
20867;BMP280;10593;48.398;10.698;2023-01-29T03:30:24;97106.56;;;7.38
20867;BMP280;10593;48.398;10.698;2023-01-29T03:33:11;97108.28;;;7.39
20867;BMP280;10593;48.398;10.698;2023-01-29T03:35:48;97111.66;;;7.39
20867;BMP280;10593;48.398;10.698;2023-01-29T03:38:14;97095.50;;;7.39
20867;BMP280;10593;48.398;10.698;2023-01-29T03:40:52;97091.22;;;7.39
20867;BMP280;10593;48.398;10.698;2023-01-29T03:43:43;97096.31;;;7.39
20867;BMP280;10593;48.398;10.698;2023-01-29T03:46:36;97098.03;;;7.39
20867;BMP280;10593;48.398;10.698;2023-01-29T03:49:18;97089.50;;;7.38
20867;BMP280;10593;48.398;10.698;2023-01-29T03:52:03;97095.50;;;7.39
20867;BMP280;10593;48.398;10.698;2023-01-29T03:57:52;97103.13;;;7.37
20867;BMP280;10593;48.398;10.698;2023-01-29T04:00:27;97107.41;;;7.37
20867;BMP280;10593;48.398;10.698;2023-01-29T04:03:20;97105.69;;;7.37
20867;BMP280;10593;48.398;10.698;2023-01-29T04:06:07;97103.13;;;7.36
20867;BMP280;10593;48.398;10.698;2023-01-29T04:09:20;97102.25;;;7.35
20867;BMP280;10593;48.398;10.698;2023-01-29T04:12:08;97106.53;;;7.36
20867;BMP280;10593;48.398;10.698;2023-01-29T04:14:36;97104.81;;;7.35
20867;BMP280;10593;48.398;10.698;2023-01-29T04:17:17;97106.53;;;7.36
20867;BMP280;10593;48.398;10.698;2023-01-29T04:19:44;97093.75;;;7.36
20867;BMP280;10593;48.398;10.698;2023-01-29T04:22:27;97099.75;;;7.37
20867;BMP280;10593;48.398;10.698;2023-01-29T04:24:54;97104.84;;;7.37
20867;BMP280;10593;48.398;10.698;2023-01-29T04:27:44;97099.75;;;7.37
20867;BMP280;10593;48.398;10.698;2023-01-29T04:33:31;97097.16;;;7.35
20867;BMP280;10593;48.398;10.698;2023-01-29T04:36:33;97096.28;;;7.33
20867;BMP280;10593;48.398;10.698;2023-01-29T04:41:54;97103.97;;;7.33
20867;BMP280;10593;48.398;10.698;2023-01-29T04:44:45;97103.13;;;7.33
20867;BMP280;10593;48.398;10.698;2023-01-29T04:47:37;97104.81;;;7.32
20867;BMP280;10593;48.398;10.698;2023-01-29T04:50:36;97101.38;;;7.32
20867;BMP280;10593;48.398;10.698;2023-01-29T04:53:24;97108.22;;;7.31
20867;BMP280;10593;48.398;10.698;2023-01-29T04:56:05;97105.66;;;7.31
20867;BMP280;10593;48.398;10.698;2023-01-29T04:58:43;97108.22;;;7.33
20867;BMP280;10593;48.398;10.698;2023-01-29T05:01:15;97103.13;;;7.33
20867;BMP280;10593;48.398;10.698;2023-01-29T05:03:45;97103.97;;;7.33
20867;BMP280;10593;48.398;10.698;2023-01-29T05:06:14;97111.63;;;7.33
20867;BMP280;10593;48.398;10.698;2023-01-29T05:08:41;97104.81;;;7.34
20867;BMP280;10593;48.398;10.698;2023-01-29T05:11:08;97118.44;;;7.34
20867;BMP280;10593;48.398;10.698;2023-01-29T05:13:38;97117.59;;;7.35
20867;BMP280;10593;48.398;10.698;2023-01-29T05:16:21;97128.69;;;7.34
20867;BMP280;10593;48.398;10.698;2023-01-29T05:18:48;97121.00;;;7.33
20867;BMP280;10593;48.398;10.698;2023-01-29T05:21:14;97123.56;;;7.34
20867;BMP280;10593;48.398;10.698;2023-01-29T05:23:40;97132.94;;;7.35
20867;BMP280;10593;48.398;10.698;2023-01-29T05:26:20;97120.16;;;7.35
20867;BMP280;10593;48.398;10.698;2023-01-29T05:29:06;97128.69;;;7.34
20867;BMP280;10593;48.398;10.698;2023-01-29T05:31:31;97131.22;;;7.34
20867;BMP280;10593;48.398;10.698;2023-01-29T05:33:57;97131.22;;;7.34
20867;BMP280;10593;48.398;10.698;2023-01-29T05:36:23;97132.06;;;7.33
20867;BMP280;10593;48.398;10.698;2023-01-29T05:38:49;97128.69;;;7.34
20867;BMP280;10593;48.398;10.698;2023-01-29T05:41:15;97121.88;;;7.35
20867;BMP280;10593;48.398;10.698;2023-01-29T05:43:41;97120.16;;;7.34
20867;BMP280;10593;48.398;10.698;2023-01-29T05:46:07;97110.78;;;7.34
20867;BMP280;10593;48.398;10.698;2023-01-29T05:48:33;97104.81;;;7.35
20867;BMP280;10593;48.398;10.698;2023-01-29T05:51:01;97108.25;;;7.36
20867;BMP280;10593;48.398;10.698;2023-01-29T05:53:31;97115.91;;;7.36
20867;BMP280;10593;48.398;10.698;2023-01-29T05:56:00;97117.59;;;7.35
20867;BMP280;10593;48.398;10.698;2023-01-29T05:58:26;97113.34;;;7.34
20867;BMP280;10593;48.398;10.698;2023-01-29T06:00:52;97115.91;;;7.34
20867;BMP280;10593;48.398;10.698;2023-01-29T06:03:18;97105.66;;;7.34
20867;BMP280;10593;48.398;10.698;2023-01-29T06:05:43;97108.22;;;7.34
20867;BMP280;10593;48.398;10.698;2023-01-29T06:08:09;97106.50;;;7.33
20867;BMP280;10593;48.398;10.698;2023-01-29T06:10:35;97116.75;;;7.35
20867;BMP280;10593;48.398;10.698;2023-01-29T06:13:01;97115.91;;;7.34
20867;BMP280;10593;48.398;10.698;2023-01-29T06:15:27;97116.75;;;7.35
20867;BMP280;10593;48.398;10.698;2023-01-29T06:17:53;97119.28;;;7.33
20867;BMP280;10593;48.398;10.698;2023-01-29T06:20:20;97127.81;;;7.35
20867;BMP280;10593;48.398;10.698;2023-01-29T06:22:45;97126.13;;;7.34
20867;BMP280;10593;48.398;10.698;2023-01-29T06:25:11;97126.97;;;7.33
20867;BMP280;10593;48.398;10.698;2023-01-29T06:27:36;97120.16;;;7.34
20867;BMP280;10593;48.398;10.698;2023-01-29T06:30:04;97117.63;;;7.34
20867;BMP280;10593;48.398;10.698;2023-01-29T06:32:30;97119.28;;;7.33
20867;BMP280;10593;48.398;10.698;2023-01-29T06:34:56;97111.63;;;7.33
20867;BMP280;10593;48.398;10.698;2023-01-29T06:37:22;97104.81;;;7.34
20867;BMP280;10593;48.398;10.698;2023-01-29T06:39:47;97108.22;;;7.33
20867;BMP280;10593;48.398;10.698;2023-01-29T06:42:13;97110.78;;;7.33
20867;BMP280;10593;48.398;10.698;2023-01-29T06:44:39;97100.56;;;7.33
20867;BMP280;10593;48.398;10.698;2023-01-29T06:47:04;97099.69;;;7.32
20867;BMP280;10593;48.398;10.698;2023-01-29T06:49:30;97103.97;;;7.33
20867;BMP280;10593;48.398;10.698;2023-01-29T06:51:56;97088.63;;;7.33
20867;BMP280;10593;48.398;10.698;2023-01-29T06:54:22;97085.19;;;7.31
20867;BMP280;10593;48.398;10.698;2023-01-29T06:56:47;97091.16;;;7.32
20867;BMP280;10593;48.398;10.698;2023-01-29T06:59:13;97091.16;;;7.32
20867;BMP280;10593;48.398;10.698;2023-01-29T07:01:40;97096.25;;;7.32
20867;BMP280;10593;48.398;10.698;2023-01-29T07:04:09;97104.81;;;7.32
20867;BMP280;10593;48.398;10.698;2023-01-29T07:06:35;97103.94;;;7.32
20867;BMP280;10593;48.398;10.698;2023-01-29T07:09:03;97101.38;;;7.32
20867;BMP280;10593;48.398;10.698;2023-01-29T07:11:29;97099.69;;;7.32
20867;BMP280;10593;48.398;10.698;2023-01-29T07:13:54;97104.81;;;7.32
20867;BMP280;10593;48.398;10.698;2023-01-29T07:16:20;97097.13;;;7.32
20867;BMP280;10593;48.398;10.698;2023-01-29T07:18:46;97109.06;;;7.33
20867;BMP280;10593;48.398;10.698;2023-01-29T07:21:11;97107.34;;;7.32
20867;BMP280;10593;48.398;10.698;2023-01-29T07:23:37;97113.31;;;7.31
20867;BMP280;10593;48.398;10.698;2023-01-29T07:26:05;97111.59;;;7.32
20867;BMP280;10593;48.398;10.698;2023-01-29T07:28:31;97112.47;;;7.32
20867;BMP280;10593;48.398;10.698;2023-01-29T07:31:00;97115.03;;;7.32
20867;BMP280;10593;48.398;10.698;2023-01-29T07:33:25;97107.34;;;7.32
20867;BMP280;10593;48.398;10.698;2023-01-29T07:35:51;97110.75;;;7.31
20867;BMP280;10593;48.398;10.698;2023-01-29T07:38:17;97112.47;;;7.32
20867;BMP280;10593;48.398;10.698;2023-01-29T07:40:43;97103.97;;;7.33
20867;BMP280;10593;48.398;10.698;2023-01-29T07:43:09;97106.50;;;7.33
20867;BMP280;10593;48.398;10.698;2023-01-29T07:45:37;97098.81;;;7.32
20867;BMP280;10593;48.398;10.698;2023-01-29T07:48:05;97105.69;;;7.33
20867;BMP280;10593;48.398;10.698;2023-01-29T07:50:33;97108.22;;;7.33
20867;BMP280;10593;48.398;10.698;2023-01-29T07:53:00;97098.00;;;7.33
20867;BMP280;10593;48.398;10.698;2023-01-29T07:55:26;97103.97;;;7.33
20867;BMP280;10593;48.398;10.698;2023-01-29T07:58:02;97121.00;;;7.33
20867;BMP280;10593;48.398;10.698;2023-01-29T08:00:30;97124.41;;;7.33
20867;BMP280;10593;48.398;10.698;2023-01-29T08:03:10;97124.41;;;7.33
20867;BMP280;10593;48.398;10.698;2023-01-29T08:05:36;97124.41;;;7.33
20867;BMP280;10593;48.398;10.698;2023-01-29T08:08:02;97126.97;;;7.33
20867;BMP280;10593;48.398;10.698;2023-01-29T08:10:28;97124.41;;;7.33
20867;BMP280;10593;48.398;10.698;2023-01-29T08:12:59;97126.13;;;7.34
20867;BMP280;10593;48.398;10.698;2023-01-29T08:15:26;97134.66;;;7.35
20867;BMP280;10593;48.398;10.698;2023-01-29T08:17:52;97138.91;;;7.34
20867;BMP280;10593;48.398;10.698;2023-01-29T08:20:19;97133.78;;;7.34
20867;BMP280;10593;48.398;10.698;2023-01-29T08:22:45;97138.91;;;7.34
20867;BMP280;10593;48.398;10.698;2023-01-29T08:25:11;97135.50;;;7.35
20867;BMP280;10593;48.398;10.698;2023-01-29T08:27:37;97131.22;;;7.34
20867;BMP280;10593;48.398;10.698;2023-01-29T08:30:04;97133.81;;;7.36
20867;BMP280;10593;48.398;10.698;2023-01-29T08:32:31;97143.16;;;7.35
20867;BMP280;10593;48.398;10.698;2023-01-29T08:34:56;97144.88;;;7.36
20867;BMP280;10593;48.398;10.698;2023-01-29T08:37:22;97154.25;;;7.36
20867;BMP280;10593;48.398;10.698;2023-01-29T08:39:47;97152.53;;;7.36
20867;BMP280;10593;48.398;10.698;2023-01-29T08:42:13;97151.72;;;7.36
20867;BMP280;10593;48.398;10.698;2023-01-29T08:44:39;97156.81;;;7.37
20867;BMP280;10593;48.398;10.698;2023-01-29T08:47:04;97166.19;;;7.37
20867;BMP280;10593;48.398;10.698;2023-01-29T08:49:30;97161.94;;;7.37
20867;BMP280;10593;48.398;10.698;2023-01-29T08:51:55;97161.06;;;7.38
20867;BMP280;10593;48.398;10.698;2023-01-29T08:54:22;97161.09;;;7.40
20867;BMP280;10593;48.398;10.698;2023-01-29T08:56:48;97145.75;;;7.38
20867;BMP280;10593;48.398;10.698;2023-01-29T08:59:14;97146.66;;;7.40
20867;BMP280;10593;48.398;10.698;2023-01-29T09:01:40;97150.03;;;7.41
20867;BMP280;10593;48.398;10.698;2023-01-29T09:04:06;97157.72;;;7.41
20867;BMP280;10593;48.398;10.698;2023-01-29T09:06:34;97159.41;;;7.42
20867;BMP280;10593;48.398;10.698;2023-01-29T09:09:00;97157.72;;;7.42
20867;BMP280;10593;48.398;10.698;2023-01-29T09:11:26;97152.63;;;7.44
20867;BMP280;10593;48.398;10.698;2023-01-29T09:13:51;97160.28;;;7.44
20867;BMP280;10593;48.398;10.698;2023-01-29T09:16:17;97167.09;;;7.45
20867;BMP280;10593;48.398;10.698;2023-01-29T09:18:43;97167.13;;;7.46
20867;BMP280;10593;48.398;10.698;2023-01-29T09:21:10;97174.81;;;7.46
20867;BMP280;10593;48.398;10.698;2023-01-29T09:23:35;97172.28;;;7.48
20867;BMP280;10593;48.398;10.698;2023-01-29T09:26:01;97175.69;;;7.47
20867;BMP280;10593;48.398;10.698;2023-01-29T09:28:27;97179.94;;;7.48
20867;BMP280;10593;48.398;10.698;2023-01-29T09:30:53;97180.78;;;7.48
20867;BMP280;10593;48.398;10.698;2023-01-29T09:33:18;97187.59;;;7.49
20867;BMP280;10593;48.398;10.698;2023-01-29T09:35:44;97194.44;;;7.50
20867;BMP280;10593;48.398;10.698;2023-01-29T09:38:12;97187.63;;;7.51
20867;BMP280;10593;48.398;10.698;2023-01-29T09:40:58;97195.31;;;7.51
20867;BMP280;10593;48.398;10.698;2023-01-29T09:46:20;97191.88;;;7.50
20867;BMP280;10593;48.398;10.698;2023-01-29T09:49:00;97193.59;;;7.51
20867;BMP280;10593;48.398;10.698;2023-01-29T09:51:37;97203.81;;;7.51
20867;BMP280;10593;48.398;10.698;2023-01-29T09:54:30;97200.41;;;7.52
20867;BMP280;10593;48.398;10.698;2023-01-29T09:56:57;97197.00;;;7.52
20867;BMP280;10593;48.398;10.698;2023-01-29T09:59:29;97198.72;;;7.53
20867;BMP280;10593;48.398;10.698;2023-01-29T10:11:00;97189.38;;;7.53
20867;BMP280;10593;48.398;10.698;2023-01-29T10:13:49;97180.84;;;7.54
20867;BMP280;10593;48.398;10.698;2023-01-29T10:16:40;97186.81;;;7.55
20867;BMP280;10593;48.398;10.698;2023-01-29T10:25:05;97170.63;;;7.54
20867;BMP280;10593;48.398;10.698;2023-01-29T10:27:39;97168.06;;;7.56
20867;BMP280;10593;48.398;10.698;2023-01-29T10:30:21;97168.09;;;7.57
20867;BMP280;10593;48.398;10.698;2023-01-29T10:32:48;97167.25;;;7.58
20867;BMP280;10593;48.398;10.698;2023-01-29T10:35:32;97160.44;;;7.60
20867;BMP280;10593;48.398;10.698;2023-01-29T10:38:28;97157.03;;;7.61
20867;BMP280;10593;48.398;10.698;2023-01-29T10:41:25;97157.03;;;7.61
20867;BMP280;10593;48.398;10.698;2023-01-29T10:44:26;97153.63;;;7.62
20867;BMP280;10593;48.398;10.698;2023-01-29T10:47:34;97143.41;;;7.61
20867;BMP280;10593;48.398;10.698;2023-01-29T10:50:23;97136.56;;;7.61
20867;BMP280;10593;48.398;10.698;2023-01-29T10:53:22;97136.56;;;7.61
20867;BMP280;10593;48.398;10.698;2023-01-29T10:58:38;97141.69;;;7.64
20867;BMP280;10593;48.398;10.698;2023-01-29T11:01:08;97140.88;;;7.64
20867;BMP280;10593;48.398;10.698;2023-01-29T11:03:34;97137.50;;;7.66
20867;BMP280;10593;48.398;10.698;2023-01-29T11:06:38;97141.75;;;7.67
20867;BMP280;10593;48.398;10.698;2023-01-29T11:09:31;97131.53;;;7.67
20867;BMP280;10593;48.398;10.698;2023-01-29T11:12:05;97125.56;;;7.68
20867;BMP280;10593;48.398;10.698;2023-01-29T11:15:21;97127.28;;;7.69
20867;BMP280;10593;48.398;10.698;2023-01-29T11:18:13;97106.78;;;7.68
20867;BMP280;10593;48.398;10.698;2023-01-29T11:20:42;97108.50;;;7.69
20867;BMP280;10593;48.398;10.698;2023-01-29T11:23:31;97102.53;;;7.70
20867;BMP280;10593;48.398;10.698;2023-01-29T11:25:59;97093.16;;;7.72
20867;BMP280;10593;48.398;10.698;2023-01-29T11:31:28;97097.47;;;7.74
20867;BMP280;10593;48.398;10.698;2023-01-29T11:34:12;97094.03;;;7.75
20867;BMP280;10593;48.398;10.698;2023-01-29T11:36:41;97091.50;;;7.77
20867;BMP280;10593;48.398;10.698;2023-01-29T11:39:23;97092.34;;;7.77
20867;BMP280;10593;48.398;10.698;2023-01-29T11:44:31;97093.22;;;7.79
20867;BMP280;10593;48.398;10.698;2023-01-29T11:47:20;97092.41;;;7.80
20867;BMP280;10593;48.398;10.698;2023-01-29T11:49:52;97089.00;;;7.81
20867;BMP280;10593;48.398;10.698;2023-01-29T11:52:22;97088.13;;;7.82
20867;BMP280;10593;48.398;10.698;2023-01-29T11:54:57;97096.69;;;7.84
20867;BMP280;10593;48.398;10.698;2023-01-29T11:57:34;97090.72;;;7.85
20867;BMP280;10593;48.398;10.698;2023-01-29T12:03:16;97093.25;;;7.85
20867;BMP280;10593;48.398;10.698;2023-01-29T12:06:17;97092.41;;;7.85
20867;BMP280;10593;48.398;10.698;2023-01-29T12:08:55;97089.00;;;7.87
20867;BMP280;10593;48.398;10.698;2023-01-29T12:11:30;97079.66;;;7.88
20867;BMP280;10593;48.398;10.698;2023-01-29T12:14:00;97077.09;;;7.89
20867;BMP280;10593;48.398;10.698;2023-01-29T12:16:42;97064.31;;;7.91
20867;BMP280;10593;48.398;10.698;2023-01-29T12:19:14;97054.91;;;7.91
20867;BMP280;10593;48.398;10.698;2023-01-29T12:22:04;97041.28;;;7.92
20867;BMP280;10593;48.398;10.698;2023-01-29T12:24:59;97036.16;;;7.92
20867;BMP280;10593;48.398;10.698;2023-01-29T12:27:58;97031.03;;;7.92
20867;BMP280;10593;48.398;10.698;2023-01-29T12:30:35;97024.22;;;7.93
20867;BMP280;10593;48.398;10.698;2023-01-29T12:33:33;97019.97;;;7.93
20867;BMP280;10593;48.398;10.698;2023-01-29T12:36:25;97022.53;;;7.93
20867;BMP280;10593;48.398;10.698;2023-01-29T12:38:53;97013.16;;;7.94
20867;BMP280;10593;48.398;10.698;2023-01-29T12:41:40;97008.91;;;7.94
20867;BMP280;10593;48.398;10.698;2023-01-29T12:44:30;97008.91;;;7.94
20867;BMP280;10593;48.398;10.698;2023-01-29T12:47:02;97012.28;;;7.95
20867;BMP280;10593;48.398;10.698;2023-01-29T12:49:36;97014.88;;;7.96
20867;BMP280;10593;48.398;10.698;2023-01-29T12:52:19;97014.84;;;7.98
20867;BMP280;10593;48.398;10.698;2023-01-29T12:54:55;97008.91;;;7.97
20867;BMP280;10593;48.398;10.698;2023-01-29T12:57:45;96994.41;;;7.99
20867;BMP280;10593;48.398;10.698;2023-01-29T13:00:34;96999.53;;;7.99
20867;BMP280;10593;48.398;10.698;2023-01-29T13:03:21;96996.97;;;7.99
20867;BMP280;10593;48.398;10.698;2023-01-29T13:05:59;96996.97;;;7.99
20867;BMP280;10593;48.398;10.698;2023-01-29T13:08:31;96991.00;;;8.00
20867;BMP280;10593;48.398;10.698;2023-01-29T13:11:07;96991.84;;;8.02
20867;BMP280;10593;48.398;10.698;2023-01-29T13:13:50;96996.13;;;8.03
20867;BMP280;10593;48.398;10.698;2023-01-29T13:16:24;96989.31;;;8.04
20867;BMP280;10593;48.398;10.698;2023-01-29T13:18:57;96991.00;;;8.06
20867;BMP280;10593;48.398;10.698;2023-01-29T13:21:28;96986.75;;;8.05
20867;BMP280;10593;48.398;10.698;2023-01-29T13:24:01;96985.91;;;8.08
20867;BMP280;10593;48.398;10.698;2023-01-29T13:26:28;96977.41;;;8.07
20867;BMP280;10593;48.398;10.698;2023-01-29T13:28:56;96974.81;;;8.09
20867;BMP280;10593;48.398;10.698;2023-01-29T13:37:09;96962.03;;;8.09
20867;BMP280;10593;48.398;10.698;2023-01-29T13:39:48;96950.09;;;8.09
20867;BMP280;10593;48.398;10.698;2023-01-29T13:42:23;96946.69;;;8.10
20867;BMP280;10593;48.398;10.698;2023-01-29T13:44:55;96947.53;;;8.09
20867;BMP280;10593;48.398;10.698;2023-01-29T13:47:32;96941.56;;;8.10
20867;BMP280;10593;48.398;10.698;2023-01-29T13:50:17;96948.38;;;8.11
20867;BMP280;10593;48.398;10.698;2023-01-29T13:53:02;96949.25;;;8.10
20867;BMP280;10593;48.398;10.698;2023-01-29T13:55:37;96951.81;;;8.10
20867;BMP280;10593;48.398;10.698;2023-01-29T13:58:05;96947.53;;;8.11
20867;BMP280;10593;48.398;10.698;2023-01-29T14:13:38;96944.97;;;8.12
20867;BMP280;10593;48.398;10.698;2023-01-29T14:18:32;96939.84;;;8.15
20867;BMP280;10593;48.398;10.698;2023-01-29T14:21:19;96937.31;;;8.15
20867;BMP280;10593;48.398;10.698;2023-01-29T14:23:51;96946.69;;;8.16
20867;BMP280;10593;48.398;10.698;2023-01-29T14:26:43;96940.72;;;8.16
20867;BMP280;10593;48.398;10.698;2023-01-29T14:29:25;96927.91;;;8.14
20867;BMP280;10593;48.398;10.698;2023-01-29T14:32:11;96940.72;;;8.16
20867;BMP280;10593;48.398;10.698;2023-01-29T14:39:57;96943.28;;;8.17
20867;BMP280;10593;48.398;10.698;2023-01-29T14:42:33;96937.34;;;8.18
20867;BMP280;10593;48.398;10.698;2023-01-29T14:45:33;96945.00;;;8.17
20867;BMP280;10593;48.398;10.698;2023-01-29T14:53:33;96963.75;;;8.17
20867;BMP280;10593;48.398;10.698;2023-01-29T14:56:32;96979.97;;;8.16
20867;BMP280;10593;48.398;10.698;2023-01-29T14:59:19;96969.72;;;8.16
20867;BMP280;10593;48.398;10.698;2023-01-29T15:01:54;96963.75;;;8.16
20867;BMP280;10593;48.398;10.698;2023-01-29T15:04:50;96949.25;;;8.16
20867;BMP280;10593;48.398;10.698;2023-01-29T15:07:43;96950.13;;;8.17
20867;BMP280;10593;48.398;10.698;2023-01-29T15:10:47;96948.38;;;8.14
20867;BMP280;10593;48.398;10.698;2023-01-29T15:13:47;96950.09;;;8.15
20867;BMP280;10593;48.398;10.698;2023-01-29T15:16:24;96953.53;;;8.16
20867;BMP280;10593;48.398;10.698;2023-01-29T15:19:07;96970.59;;;8.17
20867;BMP280;10593;48.398;10.698;2023-01-29T15:21:36;96976.53;;;8.17
20867;BMP280;10593;48.398;10.698;2023-01-29T15:24:06;96971.44;;;8.17
20867;BMP280;10593;48.398;10.698;2023-01-29T15:26:34;96968.88;;;8.17
20867;BMP280;10593;48.398;10.698;2023-01-29T15:29:01;96974.84;;;8.18
20867;BMP280;10593;48.398;10.698;2023-01-29T15:31:27;96967.19;;;8.18
20867;BMP280;10593;48.398;10.698;2023-01-29T15:33:55;96961.25;;;8.19
20867;BMP280;10593;48.398;10.698;2023-01-29T15:36:27;96963.81;;;8.19
20867;BMP280;10593;48.398;10.698;2023-01-29T15:39:19;96950.94;;;8.17
20867;BMP280;10593;48.398;10.698;2023-01-29T15:41:46;96945.84;;;8.17
20867;BMP280;10593;48.398;10.698;2023-01-29T15:44:21;96948.38;;;8.17
20867;BMP280;10593;48.398;10.698;2023-01-29T15:46:56;96948.38;;;8.17
20867;BMP280;10593;48.398;10.698;2023-01-29T15:49:35;96945.00;;;8.17
20867;BMP280;10593;48.398;10.698;2023-01-29T15:52:13;96944.13;;;8.16
20867;BMP280;10593;48.398;10.698;2023-01-29T15:54:40;96954.38;;;8.16
20867;BMP280;10593;48.398;10.698;2023-01-29T15:57:39;96956.94;;;8.16
20867;BMP280;10593;48.398;10.698;2023-01-29T16:00:19;96947.53;;;8.15
20867;BMP280;10593;48.398;10.698;2023-01-29T16:02:46;96950.94;;;8.14
20867;BMP280;10593;48.398;10.698;2023-01-29T16:05:18;96953.53;;;8.16
20867;BMP280;10593;48.398;10.698;2023-01-29T16:07:47;96957.78;;;8.15
20867;BMP280;10593;48.398;10.698;2023-01-29T16:10:25;96952.66;;;8.15